Historyczne dane pomiarowe

Dodano dane terminowe – wersja testowa.

Dane z okresu 1951-2019

Wersja bazy: 1.34 [2019-03-16, lista zmian], aktualizacja planowana na 2019-04-15

Dane meteo z obszaru Polski uzyskane na podstawie danych udostępnionych przez Instytut Meteorologii i Gospodarki Wodnej – Państwowy Instytut Badawczy.

 

Wybierz Datę:    

       

TemperaturaWilgotnośćZachmurzenieWiatrCiśnienieWidzialnośćZjawiska
 Data    tng td wb rh cc ccl cl cm ch dir g1 g2 mslp ppp      
1994-07-04 00:00:00 13.0--- 10.9 11.887wxwx0wx--1018.7 977.8 0.0---wx
1994-07-04 01:00:00 11.6--- 9.8 10.689wxwx0wx--1018.7 977.6----wx
1994-07-04 02:00:00 10.8--- 9.3 10.091wxwx0wx--1018.6 977.4----wx
1994-07-04 03:00:00 10.8--- 9.3 10.091wxwxwx0wx--1018.6 977.4----wx
1994-07-04 04:00:00 10.8--- 9.3 10.091wxwxwx0wx--1018.6 977.4----wx
1994-07-04 05:00:00 13.6--- 10.8 12.083wxwxwx0wx--1018.5 977.7----wx
1994-07-04 06:00:00 17.3--- 13.7 15.179wxwxwx0wx--1018.0 977.7 0.0---wx
1994-07-04 07:00:00 21.6--- 14.4 17.164wxwxwx0wx--1017.2 977.5----wx
1994-07-04 08:00:00 25.6--- 14.2 18.449wxwxwx0wx--1016.2 977.1----wx
1994-07-04 09:00:00 28.2--- 11.9 18.237wxwxwxwx0wx--1015.9 977.1----wx
1994-07-04 10:00:00 29.4--- 12.8 19.036wxwxwxwxwx1wx--1015.5 976.9----wx
1994-07-04 11:00:00 29.2--- 10.0 17.730wxwxwxwxwx1wx--1015.1 976.5----wx
1994-07-04 12:00:00 30.0--- 15.2 20.441wxwxwx1wx--1014.8 976.3 0.0---wx
1994-07-04 13:00:00 30.0--- 14.6 20.139wxwxwx2wx--1014.4 975.9----wx
1994-07-04 14:00:00 30.3--- 15.4 20.641wxwxwx2wx--1013.8 975.4----wx
1994-07-04 15:00:00 29.3--- 14.1 19.639wxwxwx1wx--1013.1 974.6----wx
1994-07-04 16:00:00 28.8--- 16.0 20.446wxwxwx2wx--1013.0 974.4----wx
1994-07-04 17:00:00 27.6--- 14.0 19.043wxwxwx1wx--1013.2 974.5----wx
1994-07-04 18:00:00 25.8--- 14.0 18.448wxwxwx2wx--1013.5 974.5 0.0---wx
1994-07-04 19:00:00 22.4--- 17.5 19.274wxwxwx0wx--1014.4 975.0----wx
1994-07-04 20:00:00 20.3--- 14.5 16.769wxwxwx0wx--1014.8 975.1----wx
1994-07-04 21:00:00 18.5--- 14.4 16.077wxwxwx0wx--1015.5 975.5----wx
1994-07-04 22:00:00 20.5--- 14.6 16.869wxwxwx3wx--1016.9 977.1----wx
1994-07-04 23:00:00 19.9--- 16.1 17.579wxwxwx0wx--1015.9 976.1----wx

 

Źródłem pochodzenia danych jest Instytut Meteorologii i Gospodarki Wodnej – Państwowy Instytut Badawczy. Dane Instytutu Meteorologii i Gospodarki Wodnej – Państwowego Instytutu Badawczego zostały przetworzone.

Dane źródłowe można odnaleźć na stronie https://dane.imgw.pl